createdAt,value
2019-05-28T05:01:59.436Z,99.90
2019-05-28T05:04:29.034Z,99.90
2019-05-28T05:06:58.200Z,99.90
2019-05-28T05:09:27.444Z,99.90
2019-05-28T05:11:56.657Z,99.90
2019-05-28T05:14:25.922Z,99.90
2019-05-28T05:16:55.355Z,99.90
2019-05-28T05:19:24.792Z,99.90
2019-05-28T05:21:54.137Z,99.90
2019-05-28T05:24:23.680Z,99.90
2019-05-28T05:26:53.221Z,99.90
2019-05-28T05:29:23.610Z,99.90
2019-05-28T05:32:16.924Z,99.90
2019-05-28T05:34:50.251Z,99.90
2019-05-28T05:37:21.757Z,99.90
2019-05-28T05:39:55.440Z,99.90
2019-05-28T05:42:47.158Z,99.90
2019-05-28T05:45:16.630Z,99.90
2019-05-28T05:47:51.705Z,99.90
2019-05-28T05:50:21.050Z,99.90
2019-05-28T05:52:50.510Z,99.90
2019-05-28T05:55:19.905Z,99.90
2019-05-28T05:57:49.095Z,99.90
2019-05-28T06:00:18.368Z,99.90
2019-05-28T06:02:47.564Z,99.90
2019-05-28T06:05:17.077Z,99.90
2019-05-28T06:07:46.119Z,99.90
2019-05-28T06:10:16.267Z,99.90
2019-05-28T06:12:45.596Z,99.90
2019-05-28T06:15:14.978Z,99.90
2019-05-28T06:17:44.103Z,99.90
2019-05-28T06:20:13.756Z,99.90
2019-05-28T06:22:43.203Z,99.90
2019-05-28T06:25:13.151Z,99.90
2019-05-28T06:31:07.297Z,99.90
2019-05-28T06:33:56.598Z,99.90
2019-05-28T06:36:33.094Z,99.90
2019-05-28T06:39:02.426Z,99.90
2019-05-28T06:41:31.670Z,99.90
2019-05-28T06:44:00.868Z,99.90
2019-05-28T06:46:30.075Z,99.90
2019-05-28T06:48:59.275Z,99.90
2019-05-28T06:51:29.386Z,99.90
2019-05-28T06:53:58.817Z,99.90
2019-05-28T06:56:28.071Z,99.90
2019-05-28T06:58:57.386Z,99.90
2019-05-28T07:01:28.573Z,99.90
2019-05-28T07:24:59.543Z,99.90
2019-05-28T07:27:28.759Z,99.90
2019-05-28T07:30:09.922Z,99.90
2019-05-28T07:32:39.400Z,99.90
2019-05-28T07:38:41.211Z,99.90
2019-05-28T07:41:10.311Z,99.90
2019-05-28T07:43:39.937Z,99.90
2019-05-28T07:46:09.256Z,99.90
2019-05-28T07:48:38.698Z,99.90
2019-05-28T07:51:08.383Z,99.90
2019-05-28T07:53:40.363Z,99.90
2019-05-28T07:56:08.396Z,99.90
2019-05-28T07:58:37.702Z,99.90
2019-05-28T08:01:07.225Z,99.90
2019-05-28T08:03:36.461Z,99.90
2019-05-28T08:06:05.635Z,99.90
2019-05-28T08:08:35.042Z,99.90
2019-05-28T08:11:04.440Z,99.90
2019-05-28T08:13:40.848Z,99.90
2019-05-28T08:16:17.663Z,99.90
2019-05-28T08:18:36.080Z,99.90
2019-05-28T08:21:05.508Z,99.90
2019-05-28T08:23:34.722Z,99.90
2019-05-28T08:26:04.024Z,99.90
2019-05-28T08:28:33.359Z,99.90
2019-05-28T08:31:14.782Z,99.90
2019-05-28T08:33:33.781Z,99.90
2019-05-28T08:36:03.007Z,99.90
2019-05-28T08:38:32.487Z,99.90
2019-05-28T08:41:01.710Z,99.90
2019-05-28T08:43:30.884Z,99.50
2019-05-28T08:46:00.267Z,99.10
2019-05-28T08:48:29.441Z,99.30
2019-05-28T08:50:58.695Z,99.30
2019-05-28T08:53:27.825Z,99.20
2019-05-28T08:55:57.069Z,98.50
2019-05-28T08:58:26.403Z,97.40
2019-05-28T09:00:55.596Z,98.70
2019-05-28T09:03:24.739Z,98.30
2019-05-28T09:05:53.949Z,98.60
2019-05-28T09:08:37.899Z,97.90
2019-05-28T09:10:54.152Z,98.80
2019-05-28T09:13:23.329Z,98.90
2019-05-28T09:15:52.567Z,98.80
2019-05-28T09:18:21.908Z,98.50
2019-05-28T09:20:51.345Z,98.00
2019-05-28T09:23:20.732Z,98.30
2019-05-28T09:25:49.909Z,97.90
2019-05-28T09:28:29.304Z,98.00
2019-05-28T09:30:49.959Z,97.30
2019-05-28T09:33:19.386Z,97.00
2019-05-28T09:36:06.331Z,97.60
2019-05-28T09:38:19.633Z,98.70
2019-05-28T09:40:50.819Z,99.50
2019-05-28T09:43:19.977Z,99.50
2019-05-28T09:45:49.342Z,98.90
2019-05-28T09:48:18.667Z,99.10
2019-05-28T09:50:47.905Z,99.30
2019-05-28T09:53:17.044Z,97.10
2019-05-28T09:55:46.287Z,98.00
2019-05-28T09:58:15.558Z,97.70
2019-05-28T10:00:57.438Z,97.50
2019-05-28T10:03:16.461Z,97.90
2019-05-28T10:05:58.561Z,98.30
2019-05-28T10:08:16.459Z,98.90
2019-05-28T10:10:45.736Z,98.70
2019-05-28T10:13:15.005Z,99.30
2019-05-28T10:15:44.839Z,98.40
2019-05-28T10:18:14.504Z,97.40
2019-05-28T10:23:38.553Z,97.90
2019-05-28T10:26:11.559Z,97.70
2019-05-28T10:29:11.796Z,97.00
2019-05-28T10:32:07.727Z,97.00
2019-05-28T10:34:37.187Z,96.80
2019-05-28T10:37:06.918Z,98.20
2019-05-28T10:39:36.484Z,96.30
2019-05-28T10:42:06.033Z,96.30
2019-05-28T10:44:45.002Z,96.00
2019-05-28T10:47:11.969Z,95.00
2019-05-28T10:49:41.341Z,95.30
2019-05-28T10:52:38.578Z,95.60
2019-05-28T10:55:36.039Z,95.30
2019-05-28T10:58:05.855Z,92.90
2019-05-28T11:00:36.417Z,93.60
2019-05-28T11:03:05.824Z,93.80
2019-05-28T11:05:35.423Z,93.60
2019-05-28T11:08:04.998Z,93.50
2019-05-28T11:10:38.323Z,94.30
2019-05-28T11:13:08.853Z,93.10
2019-05-28T11:15:39.023Z,93.70
2019-05-28T11:18:08.431Z,94.30
2019-05-28T11:20:37.805Z,95.40
2019-05-28T11:23:07.196Z,95.10
2019-05-28T11:28:25.221Z,93.50
2019-05-28T11:30:54.684Z,94.20
2019-05-28T11:33:24.165Z,93.80
2019-05-28T11:35:53.590Z,93.20
2019-05-28T11:38:22.997Z,92.80
2019-05-28T11:40:52.486Z,93.00
2019-05-28T11:43:21.842Z,93.30
2019-05-28T11:45:51.113Z,93.40
2019-05-28T11:48:20.484Z,93.00
2019-05-28T11:50:52.505Z,93.40
2019-05-28T11:53:25.044Z,93.20
2019-05-28T11:55:54.394Z,94.00
2019-05-28T11:58:29.542Z,94.30
2019-05-28T12:01:05.913Z,94.60
2019-05-28T12:03:54.976Z,93.90
2019-05-28T12:06:29.476Z,94.20
2019-05-28T12:08:58.702Z,93.90
2019-05-28T12:11:28.509Z,94.40
2019-05-28T12:13:58.101Z,94.30
2019-05-28T12:16:27.442Z,93.20
2019-05-28T12:18:58.399Z,93.50
2019-05-28T12:21:28.026Z,93.60
2019-05-28T12:23:57.900Z,93.90
2019-05-28T12:26:29.457Z,94.80
2019-05-28T12:29:02.183Z,93.80
2019-05-28T12:31:35.294Z,94.30
2019-05-28T12:34:04.505Z,93.70
2019-05-28T12:36:33.945Z,93.80
2019-05-28T12:39:05.954Z,93.50
2019-05-28T12:41:35.812Z,93.90
2019-05-28T12:44:05.821Z,94.20
2019-05-28T12:46:36.773Z,93.50
2019-05-28T12:49:06.262Z,94.90
2019-05-28T12:51:37.308Z,93.20
2019-05-28T12:54:06.974Z,93.10
2019-05-28T12:56:36.494Z,92.80
2019-05-28T12:59:05.923Z,92.40
2019-05-28T13:01:35.418Z,91.90
2019-05-28T13:04:05.136Z,92.80
2019-05-28T13:06:34.784Z,92.00
2019-05-28T13:09:06.772Z,91.80
2019-05-28T13:11:36.156Z,90.90
2019-05-28T13:14:05.940Z,91.10
2019-05-28T13:16:35.788Z,92.00
2019-05-28T13:19:05.286Z,91.90
2019-05-28T13:21:34.801Z,91.00
2019-05-28T13:24:04.335Z,92.20
2019-05-28T13:26:33.871Z,90.50
2019-05-28T13:29:03.353Z,90.70
2019-05-28T13:31:36.280Z,91.40
2019-05-28T13:34:05.991Z,89.30
2019-05-28T13:36:35.462Z,91.40
2019-05-28T13:39:06.807Z,91.40
2019-05-28T13:41:36.472Z,91.00
2019-05-28T13:44:08.083Z,90.70
2019-05-28T13:46:37.193Z,90.80
2019-05-28T13:49:06.776Z,90.90
2019-05-28T13:51:36.289Z,88.30
2019-05-28T13:54:05.714Z,89.10
2019-05-28T13:56:35.415Z,90.20
2019-05-28T13:59:04.860Z,89.30
2019-05-28T14:01:34.330Z,90.10
2019-05-28T14:04:03.754Z,90.00
2019-05-28T14:06:33.045Z,87.20
2019-05-28T14:09:02.554Z,88.40
2019-05-28T14:11:32.051Z,90.60
2019-05-28T14:14:01.579Z,90.10
2019-05-28T14:16:30.971Z,89.80
2019-05-28T14:19:00.375Z,90.30
2019-05-28T14:21:29.761Z,88.50
2019-05-28T14:23:59.150Z,87.70
2019-05-28T14:26:28.813Z,86.40
2019-05-28T14:28:58.097Z,86.90
2019-05-28T14:31:27.500Z,87.40
2019-05-28T14:33:57.296Z,86.90
2019-05-28T14:36:26.884Z,85.50
2019-05-28T14:39:03.007Z,85.10
2019-05-28T14:41:27.825Z,84.40
2019-05-28T14:43:57.345Z,84.70
2019-05-28T14:46:26.908Z,85.10
2019-05-28T14:48:56.565Z,85.60
2019-05-28T14:51:25.943Z,85.00
2019-05-28T14:53:55.342Z,84.10
2019-05-28T14:56:24.733Z,84.90
2019-05-28T14:58:54.182Z,82.50
2019-05-28T15:01:29.833Z,84.20
2019-05-28T15:06:49.852Z,84.50
2019-05-28T15:09:21.501Z,83.40
2019-05-28T15:11:50.460Z,83.80
2019-05-28T15:14:23.339Z,84.60
2019-05-28T15:16:55.943Z,84.20
2019-05-28T15:19:25.764Z,84.60
2019-05-28T15:21:55.145Z,85.40
2019-05-28T15:24:24.400Z,83.70
2019-05-28T15:26:54.236Z,84.50
2019-05-28T15:29:23.650Z,82.60
2019-05-28T15:31:53.265Z,82.80
2019-05-28T15:34:22.802Z,84.20
2019-05-28T15:36:52.842Z,85.30
2019-05-28T15:39:38.226Z,83.60
2019-05-28T15:41:53.729Z,83.90
2019-05-28T15:44:23.135Z,84.60
2019-05-28T15:46:52.705Z,84.80
2019-05-28T15:49:25.244Z,84.60
2019-05-28T15:52:07.034Z,84.80
2019-05-28T15:54:25.870Z,86.10
2019-05-28T15:56:56.286Z,85.10
2019-05-28T15:59:26.039Z,85.70
2019-05-28T16:01:55.644Z,84.60
2019-05-28T16:04:24.987Z,85.00
2019-05-28T16:07:13.457Z,85.40
2019-05-28T16:09:55.751Z,84.70
2019-05-28T16:12:14.024Z,85.70
2019-05-28T16:14:43.464Z,87.00
2019-05-28T16:17:12.882Z,86.50
2019-05-28T16:19:42.464Z,88.20
2019-05-28T16:22:12.021Z,87.10
2019-05-28T16:24:41.514Z,87.40
2019-05-28T16:27:10.934Z,87.00
2019-05-28T16:29:40.445Z,88.40
2019-05-28T16:32:09.927Z,86.90
2019-05-28T16:34:39.926Z,85.80
2019-05-28T16:37:09.440Z,84.80
2019-05-28T16:39:38.861Z,85.30
2019-05-28T16:42:08.585Z,85.90
2019-05-28T16:44:37.996Z,86.90
2019-05-28T16:47:17.185Z,86.80
2019-05-28T16:49:38.611Z,86.00
2019-05-28T16:52:41.374Z,87.50
2019-05-28T16:55:17.875Z,86.50
2019-05-28T16:57:47.673Z,86.70
2019-05-28T17:00:23.467Z,85.00
2019-05-28T17:02:55.212Z,86.60
2019-05-28T17:05:27.498Z,85.50
2019-05-28T17:07:56.933Z,86.70
2019-05-28T17:10:32.787Z,85.70
2019-05-28T17:12:57.608Z,86.60
2019-05-28T17:15:27.063Z,88.60
2019-05-28T17:17:56.539Z,87.90
2019-05-28T17:20:26.223Z,87.30
2019-05-28T17:22:56.966Z,86.80
2019-05-28T17:25:27.364Z,88.00
2019-05-28T17:27:57.411Z,88.40
2019-05-28T17:30:26.907Z,89.00
2019-05-28T17:32:56.464Z,88.30
2019-05-28T17:35:25.905Z,89.20
2019-05-28T17:37:56.361Z,90.10
2019-05-28T17:40:25.671Z,90.40
2019-05-28T17:43:01.183Z,90.30
